Time;durP1;ratioP1;P1;durP2;ratioP2;P2;SDS_P1;SDS_P2;PMS_P1;PMS_P2;Temp;Humidity;BMP_temperature;BMP_pressure;BME280_temperature;BME280_humidity;BME280_pressure;Samples;Min_cycle;Max_cycle;Signal;HPM_P1;HPM_P2
2022/10/12 00:00:18;;;;;;;18.20;8.27;;;;;;;6.43;100.00;102133.22;7391576;19;20424;-59
2022/10/12 00:02:47;;;;;;;21.27;7.50;;;;;;;6.43;100.00;102130.66;7395066;19;20905;-59
2022/10/12 00:05:19;;;;;;;16.73;6.80;;;;;;;6.45;100.00;102123.97;7394591;19;20447;-57
2022/10/12 00:07:49;;;;;;;17.73;7.90;;;;;;;6.49;100.00;102123.47;7396508;19;20411;-53
2022/10/12 00:10:18;;;;;;;18.60;7.87;;;;;;;6.53;100.00;102128.09;7394557;19;20402;-56
2022/10/12 00:12:48;;;;;;;20.30;6.93;;;;;;;6.56;100.00;102127.44;7395615;19;20419;-60
2022/10/12 00:15:17;;;;;;;14.93;7.27;;;;;;;6.82;100.00;102129.50;7392062;19;20430;-58
2022/10/12 00:17:47;;;;;;;17.73;6.80;;;;;;;6.88;100.00;102121.41;7396000;19;20447;-54
2022/10/12 00:20:16;;;;;;;26.43;7.90;;;;;;;6.77;100.00;102127.34;7393045;19;20419;-55
2022/10/12 00:22:48;;;;;;;18.47;7.47;;;;;;;6.98;100.00;102118.75;7396545;19;20391;-59
2022/10/12 00:25:18;;;;;;;24.40;7.63;;;;;;;6.96;100.00;102120.31;7395362;19;20440;-57
2022/10/12 00:27:47;;;;;;;17.30;7.10;;;;;;;6.79;100.00;102124.13;7395406;19;20431;-54
2022/10/12 00:30:17;;;;;;;26.70;8.60;;;;;;;6.84;100.00;102116.78;7394293;19;20407;-59
2022/10/12 00:32:46;;;;;;;28.43;8.50;;;;;;;6.91;100.00;102116.50;7395892;19;20928;-51
2022/10/12 00:35:16;;;;;;;19.70;7.67;;;;;;;6.92;100.00;102114.84;7394238;19;20402;-62
2022/10/12 00:37:45;;;;;;;18.80;7.70;;;;;;;7.12;100.00;102114.72;7395667;19;20973;-52
2022/10/12 00:40:17;;;;;;;19.90;6.27;;;;;;;7.02;100.00;102114.75;7393340;19;20435;-59
2022/10/12 00:42:47;;;;;;;18.73;6.90;;;;;;;7.13;100.00;102113.06;7395550;19;20415;-57
2022/10/12 00:45:17;;;;;;;14.20;6.80;;;;;;;7.08;100.00;102122.94;7388809;19;20410;-59
2022/10/12 00:47:50;;;;;;;23.70;8.00;;;;;;;7.07;100.00;102123.72;7395893;19;20406;-53
2022/10/12 00:50:23;;;;;;;18.60;7.50;;;;;;;6.92;100.00;102128.53;7393341;19;20412;-61
2022/10/12 00:52:56;;;;;;;19.07;6.57;;;;;;;6.81;100.00;102130.25;7393531;19;20769;-58
2022/10/12 00:55:30;;;;;;;19.40;6.80;;;;;;;6.81;100.00;102127.69;7394213;19;20825;-59
2022/10/12 00:58:00;;;;;;;18.37;6.13;;;;;;;6.83;100.00;102132.97;7395716;19;20427;-60
2022/10/12 01:00:29;;;;;;;18.60;6.77;;;;;;;6.84;100.00;102133.09;7393552;19;20415;-60
2022/10/12 01:02:59;;;;;;;23.00;7.97;;;;;;;6.85;100.00;102149.38;7395685;19;20392;-55
2022/10/12 01:05:29;;;;;;;15.80;7.70;;;;;;;6.81;100.00;102145.66;7386334;19;20399;-55
2022/10/12 01:07:59;;;;;;;17.53;8.97;;;;;;;6.94;100.00;102146.63;7395273;19;20435;-55
2022/10/12 01:10:31;;;;;;;21.27;9.40;;;;;;;7.10;100.00;102147.06;7393058;19;20963;-59
2022/10/12 01:13:01;;;;;;;15.93;7.83;;;;;;;6.98;100.00;102143.53;7395851;19;20387;-56
2022/10/12 01:15:34;;;;;;;16.10;8.37;;;;;;;7.06;100.00;102152.72;7391773;19;20413;-61
2022/10/12 01:18:08;;;;;;;21.77;7.40;;;;;;;6.91;100.00;102156.66;7394735;19;20423;-57
2022/10/12 01:20:47;;;;;;;17.43;8.33;;;;;;;6.80;100.00;102164.41;7391381;19;20460;-59
2022/10/12 01:23:47;;;;;;;14.20;6.90;;;;;;;6.89;100.00;102162.53;7394253;19;20921;-57
2022/10/12 01:26:44;;;;;;;16.83;7.10;;;;;;;6.76;100.00;102167.47;7393371;19;20771;-61
2022/10/12 01:29:26;;;;;;;18.80;6.10;;;;;;;6.71;100.00;102158.50;7393114;19;20797;-61
2022/10/12 01:32:01;;;;;;;17.20;7.00;;;;;;;6.91;100.00;102159.25;7392210;19;20419;-61
2022/10/12 01:34:36;;;;;;;13.27;5.57;;;;;;;7.32;100.00;102156.44;7398081;19;20394;-58
2022/10/12 01:37:13;;;;;;;12.37;6.27;;;;;;;7.47;100.00;102155.81;7394070;19;20415;-58
2022/10/12 01:39:46;;;;;;;13.73;6.37;;;;;;;7.35;100.00;102151.53;7393080;19;20420;-57
2022/10/12 01:42:20;;;;;;;16.57;6.47;;;;;;;7.19;100.00;102158.81;7393946;19;20391;-59
2022/10/12 01:44:49;;;;;;;19.20;6.87;;;;;;;7.32;100.00;102156.44;7388529;19;20743;-63
2022/10/12 01:47:22;;;;;;;10.90;6.10;;;;;;;7.57;100.00;102153.19;7394326;19;20777;-57
2022/10/12 01:49:52;;;;;;;20.33;7.20;;;;;;;7.61;100.00;102151.75;7392640;19;20510;-56
2022/10/12 01:52:29;;;;;;;14.90;6.40;;;;;;;7.50;100.00;102156.06;7394039;19;20408;-59
2022/10/12 01:55:05;;;;;;;13.47;6.70;;;;;;;7.29;100.00;102161.34;7392196;19;20752;-62
2022/10/12 01:57:46;;;;;;;20.73;7.23;;;;;;;7.22;100.00;102159.94;7394181;19;20431;-55
2022/10/12 02:00:17;;;;;;;16.40;6.27;;;;;;;7.10;100.00;102162.47;7391793;19;20928;-53
2022/10/12 02:02:55;;;;;;;15.43;5.43;;;;;;;6.99;100.00;102165.84;7393384;19;20948;-57
2022/10/12 02:05:30;;;;;;;15.60;6.20;;;;;;;7.05;100.00;102166.34;7391900;19;20411;-58
2022/10/12 02:08:05;;;;;;;12.60;5.40;;;;;;;7.39;100.00;102168.97;7393655;19;20407;-54
2022/10/12 02:10:38;;;;;;;12.43;6.60;;;;;;;7.16;100.00;102165.53;7391237;19;20421;-58
2022/10/12 02:13:09;;;;;;;14.80;6.23;;;;;;;7.08;100.00;102156.31;7393971;19;20388;-60
2022/10/12 02:15:41;;;;;;;16.03;6.60;;;;;;;7.38;100.00;102163.72;7389890;19;20442;-55
2022/10/12 02:18:16;;;;;;;11.87;6.60;;;;;;;7.40;100.00;102159.59;7393011;19;20407;-59
2022/10/12 02:20:47;;;;;;;17.23;7.33;;;;;;;7.58;100.00;102147.25;7390055;19;20787;-55
2022/10/12 02:23:17;;;;;;;19.70;6.20;;;;;;;7.54;100.00;102145.25;7394349;19;20380;-57
2022/10/12 02:25:48;;;;;;;11.73;6.17;;;;;;;7.57;100.00;102153.19;7391410;19;20411;-59
2022/10/12 02:28:18;;;;;;;14.47;6.43;;;;;;;7.20;100.00;102165.75;7392405;19;20415;-55
2022/10/12 02:30:51;;;;;;;19.03;7.57;;;;;;;7.10;100.00;102154.78;7390465;19;20436;-55
2022/10/12 02:33:26;;;;;;;15.20;7.47;;;;;;;7.05;100.00;102150.94;7395051;19;20396;-62
2022/10/12 02:36:00;;;;;;;18.80;7.20;;;;;;;6.96;100.00;102147.63;7388038;19;20415;-59
2022/10/12 02:38:33;;;;;;;28.40;7.60;;;;;;;7.16;100.00;102144.06;7392286;19;20411;-52
2022/10/12 02:41:05;;;;;;;16.53;6.00;;;;;;;7.23;100.00;102141.19;7389363;19;20430;-60
2022/10/12 02:43:38;;;;;;;20.07;7.50;;;;;;;7.38;100.00;102131.22;7393357;19;20416;-60
2022/10/12 02:46:09;;;;;;;17.13;6.80;;;;;;;7.34;100.00;102128.31;7385777;19;20422;-58
2022/10/12 02:48:41;;;;;;;17.40;7.67;;;;;;;7.39;100.00;102119.28;7391836;19;20431;-48
2022/10/12 02:51:12;;;;;;;11.40;6.60;;;;;;;7.26;100.00;102126.06;7389767;19;20427;-60
2022/10/12 02:53:43;;;;;;;18.60;7.20;;;;;;;7.36;100.00;102122.53;7392971;19;20380;-59
2022/10/12 02:56:14;;;;;;;13.50;6.73;;;;;;;7.32;100.00;102117.91;7392953;19;20976;-61
2022/10/12 02:58:45;;;;;;;15.10;7.23;;;;;;;7.63;100.00;102120.25;7391245;19;20423;-55
2022/10/12 03:01:15;;;;;;;18.00;7.47;;;;;;;7.59;100.00;102115.66;7388625;19;20845;-52
2022/10/12 03:03:48;;;;;;;19.47;7.37;;;;;;;7.74;100.00;102118.47;7392618;19;20375;-59
2022/10/12 03:06:18;;;;;;;18.30;7.00;;;;;;;7.48;100.00;102117.41;7390143;19;20442;-56
2022/10/12 03:08:48;;;;;;;17.53;6.60;;;;;;;7.53;100.00;102118.66;7390795;19;20426;-56
2022/10/12 03:11:17;;;;;;;21.50;6.70;;;;;;;7.68;100.00;102118.94;7389362;19;20423;-58
2022/10/12 03:13:47;;;;;;;13.97;6.90;;;;;;;7.64;100.00;102121.16;7392527;19;20407;-56
2022/10/12 03:16:16;;;;;;;14.60;6.60;;;;;;;7.50;100.00;102120.09;7387166;19;20451;-58
2022/10/12 03:18:48;;;;;;;14.50;7.13;;;;;;;7.62;100.00;102121.03;7390538;19;20467;-55
2022/10/12 03:21:18;;;;;;;19.07;6.50;;;;;;;7.79;100.00;102124.00;7388159;19;20419;-56
2022/10/12 03:23:48;;;;;;;15.67;6.87;;;;;;;7.95;100.00;102119.19;7392192;19;20407;-56
2022/10/12 03:26:17;;;;;;;27.93;7.80;;;;;;;7.78;100.00;102122.19;7389279;19;20779;-54
2022/10/12 03:28:47;;;;;;;15.73;6.67;;;;;;;7.76;100.00;102123.75;7390106;19;20782;-59
2022/10/12 03:31:16;;;;;;;15.83;8.10;;;;;;;7.67;100.00;102127.44;7388653;19;20423;-59
2022/10/12 03:33:48;;;;;;;18.23;8.03;;;;;;;7.72;100.00;102124.28;7393615;19;20391;-62
2022/10/12 03:36:18;;;;;;;18.13;8.07;;;;;;;8.02;100.00;102124.78;7389383;19;20415;-61
2022/10/12 03:38:47;;;;;;;13.03;6.93;;;;;;;8.03;100.00;102122.34;7390058;19;20937;-57
2022/10/12 03:41:17;;;;;;;15.67;6.80;;;;;;;7.90;100.00;102117.97;7388040;19;20788;-56
2022/10/12 03:43:46;;;;;;;17.37;6.20;;;;;;;7.78;100.00;102123.09;7391653;19;20417;-59
2022/10/12 03:46:16;;;;;;;13.53;6.27;;;;;;;7.84;100.00;102125.22;7387458;19;20440;-59
2022/10/12 03:48:47;;;;;;;19.73;7.10;;;;;;;8.06;100.00;102126.81;7396570;19;20431;-59
2022/10/12 03:51:17;;;;;;;16.60;8.00;;;;;;;8.03;100.00;102121.44;7395748;19;20414;-54
2022/10/12 03:53:46;;;;;;;10.80;6.50;;;;;;;7.94;100.00;102125.13;7398851;19;20411;-57
2022/10/12 03:56:16;;;;;;;13.93;6.17;;;;;;;7.97;100.00;102125.38;7395964;19;20451;-54
2022/10/12 03:58:45;;;;;;;11.70;5.93;;;;;;;7.91;100.00;102124.91;7396374;19;20411;-58
2022/10/12 04:01:14;;;;;;;18.13;6.50;;;;;;;7.86;100.00;102131.38;7394691;19;20411;-60
2022/10/12 04:03:44;;;;;;;13.47;6.37;;;;;;;7.97;100.00;102132.16;7398083;19;20388;-59
2022/10/12 04:06:16;;;;;;;12.90;6.90;;;;;;;8.15;100.00;102134.31;7395231;19;20411;-58
2022/10/12 04:08:45;;;;;;;15.53;7.00;;;;;;;8.36;100.00;102135.00;7396064;19;20412;-55
2022/10/12 04:11:19;;;;;;;12.40;6.43;;;;;;;8.17;100.00;102128.50;7394903;19;20411;-58
2022/10/12 04:13:48;;;;;;;15.23;6.10;;;;;;;8.09;100.00;102130.50;7398203;19;20392;-55
2022/10/12 04:16:18;;;;;;;18.47;6.50;;;;;;;7.99;100.00;102129.72;7392761;19;20965;-57
2022/10/12 04:18:47;;;;;;;18.23;7.17;;;;;;;7.88;100.00;102129.81;7395561;19;20453;-59
2022/10/12 04:21:21;;;;;;;17.73;6.63;;;;;;;7.91;100.00;102127.47;7394387;19;20411;-61
2022/10/12 04:23:50;;;;;;;13.90;7.10;;;;;;;7.90;100.00;102122.22;7398071;19;20372;-58
2022/10/12 04:26:19;;;;;;;15.67;6.57;;;;;;;7.70;100.00;102113.91;7395017;19;20415;-61
2022/10/12 04:28:49;;;;;;;16.53;6.33;;;;;;;7.74;100.00;102109.91;7395191;19;20443;-55
2022/10/12 04:31:18;;;;;;;15.30;5.90;;;;;;;7.63;100.00;102107.41;7394105;19;20422;-60
2022/10/12 04:33:48;;;;;;;17.23;6.07;;;;;;;7.73;100.00;102098.72;7399979;19;20415;-58
2022/10/12 04:36:20;;;;;;;14.10;6.70;;;;;;;7.72;100.00;102101.16;7394505;19;20444;-59
2022/10/12 04:38:49;;;;;;;19.60;6.50;;;;;;;7.76;100.00;102096.41;7395252;19;20427;-56
2022/10/12 04:41:19;;;;;;;19.43;6.33;;;;;;;7.60;100.00;102096.91;7393870;19;20442;-57
2022/10/12 04:43:48;;;;;;;14.63;7.10;;;;;;;7.48;100.00;102091.72;7394860;19;20464;-57
2022/10/12 04:46:18;;;;;;;15.17;6.93;;;;;;;7.25;100.00;102088.31;7388258;19;20411;-61
2022/10/12 04:48:47;;;;;;;19.60;7.07;;;;;;;7.19;100.00;102089.50;7394923;19;20416;-52
2022/10/12 04:51:19;;;;;;;17.50;7.00;;;;;;;7.27;100.00;102080.72;7393238;19;20403;-61
2022/10/12 04:53:48;;;;;;;10.57;6.47;;;;;;;7.36;100.00;102076.31;7396670;19;20388;-57
2022/10/12 04:56:18;;;;;;;12.57;6.67;;;;;;;7.30;100.00;102078.41;7393836;19;20434;-56
2022/10/12 04:58:48;;;;;;;17.10;7.37;;;;;;;7.45;100.00;102065.84;7392069;19;20435;-56
2022/10/12 05:01:17;;;;;;;17.83;7.07;;;;;;;7.42;100.00;102074.19;7395675;19;20455;-54
2022/10/12 05:03:46;;;;;;;20.53;6.70;;;;;;;7.39;100.00;102066.25;7394195;19;20395;-58
2022/10/12 05:06:16;;;;;;;17.90;6.73;;;;;;;7.37;100.00;102059.19;7393412;19;20415;-53
2022/10/12 05:08:48;;;;;;;13.67;6.60;;;;;;;7.31;100.00;102062.22;7394382;19;20423;-58
2022/10/12 05:11:17;;;;;;;17.30;7.07;;;;;;;7.48;100.00;102065.19;7392915;19;20402;-57
2022/10/12 05:13:47;;;;;;;15.30;6.63;;;;;;;7.45;100.00;102055.56;7396175;19;20766;-54
2022/10/12 05:16:16;;;;;;;13.17;6.10;;;;;;;7.28;100.00;102056.84;7393120;19;20442;-58
2022/10/12 05:18:45;;;;;;;15.70;6.50;;;;;;;7.34;100.00;102056.41;7393733;19;20428;-57
2022/10/12 05:21:15;;;;;;;16.10;6.57;;;;;;;7.34;100.00;102054.72;7392353;19;20762;-57
2022/10/12 05:23:44;;;;;;;19.63;6.57;;;;;;;7.37;100.00;102057.53;7394105;19;20376;-54
2022/10/12 05:26:16;;;;;;;16.13;6.23;;;;;;;7.42;100.00;102055.31;7395862;19;20466;-59
2022/10/12 05:28:46;;;;;;;33.10;15.80;;;;;;;7.57;100.00;102055.56;7393356;19;20779;-57
2022/10/12 05:31:15;;;;;;;24.10;12.90;;;;;;;7.68;100.00;102054.72;7391649;19;20415;-59
2022/10/12 05:33:45;;;;;;;38.57;16.70;;;;;;;7.66;100.00;102056.28;7395213;19;20411;-58
2022/10/12 05:36:14;;;;;;;46.90;26.00;;;;;;;8.20;100.00;102058.44;7392394;19;20957;-57
2022/10/12 05:38:43;;;;;;;35.13;17.13;;;;;;;8.13;100.00;102058.75;7393617;19;20455;-58
2022/10/12 05:41:13;;;;;;;22.47;10.40;;;;;;;8.15;100.00;102062.34;7391959;19;21315;-56
2022/10/12 05:43:45;;;;;;;18.73;9.80;;;;;;;7.87;100.00;102066.34;7393907;19;20390;-58
2022/10/12 05:46:14;;;;;;;23.50;11.50;;;;;;;7.90;100.00;102066.56;7391979;19;20426;-58
2022/10/12 05:48:44;;;;;;;32.77;14.73;;;;;;;8.35;100.00;102074.03;7393434;19;20416;-56
2022/10/12 05:51:13;;;;;;;14.60;7.20;;;;;;;8.31;100.00;102079.78;7391344;19;20532;-61
2022/10/12 05:53:42;;;;;;;14.37;6.20;;;;;;;8.26;100.00;102092.28;7394850;19;20395;-59
2022/10/12 05:56:12;;;;;;;15.73;6.43;;;;;;;8.17;100.00;102101.91;7391988;19;20419;-58
2022/10/12 05:58:41;;;;;;;15.83;5.73;;;;;;;7.73;100.00;102100.41;7393306;19;20456;-54
2022/10/12 06:01:15;;;;;;;14.50;5.70;;;;;;;7.85;100.00;102103.91;7388381;19;21075;-58
2022/10/12 06:03:44;;;;;;;18.13;6.40;;;;;;;7.88;100.00;102114.38;7390558;19;20387;-59
2022/10/12 06:06:14;;;;;;;14.90;5.73;;;;;;;7.55;100.00;102113.66;7388804;19;21003;-55
2022/10/12 06:08:43;;;;;;;16.20;5.57;;;;;;;7.81;100.00;102107.00;7395340;19;20424;-59
2022/10/12 06:11:12;;;;;;;12.80;5.43;;;;;;;7.83;100.00;102113.16;7390724;19;20454;-60
2022/10/12 06:13:42;;;;;;;17.03;5.83;;;;;;;7.91;100.00;102113.72;7394052;19;20386;-53
2022/10/12 06:16:14;;;;;;;16.60;5.20;;;;;;;7.81;100.00;102117.28;7391936;19;20458;-55
2022/10/12 06:18:43;;;;;;;12.53;6.10;;;;;;;7.61;100.00;102119.25;7392419;19;20479;-61
2022/10/12 06:21:13;;;;;;;11.00;5.40;;;;;;;7.49;100.00;102116.63;7389929;19;20415;-52
2022/10/12 06:24:01;;;;;;;14.60;5.23;;;;;;;7.42;100.00;102116.94;7395443;19;20455;-60
2022/10/12 06:26:31;;;;;;;10.40;5.87;;;;;;;7.37;100.00;102113.13;7390890;19;20411;-58
2022/10/12 06:29:00;;;;;;;10.70;5.83;;;;;;;7.31;100.00;102116.13;7391331;19;20439;-59
2022/10/12 06:31:32;;;;;;;13.93;5.70;;;;;;;7.22;100.00;102113.75;7390130;19;20968;-53
2022/10/12 06:34:02;;;;;;;19.50;6.47;;;;;;;7.26;100.00;102109.75;7392913;19;20379;-57
2022/10/12 06:36:31;;;;;;;15.80;6.77;;;;;;;7.25;100.00;102108.88;7390447;19;20411;-54
2022/10/12 06:39:01;;;;;;;13.67;6.23;;;;;;;7.24;100.00;102099.34;7391190;19;20411;-59
2022/10/12 06:41:30;;;;;;;16.73;6.77;;;;;;;7.26;100.00;102099.47;7390542;19;20482;-59
2022/10/12 06:43:59;;;;;;;12.70;6.37;;;;;;;7.31;100.00;102103.28;7391627;19;20403;-57
2022/10/12 06:46:29;;;;;;;18.00;6.63;;;;;;;7.33;100.00;102096.59;7390024;19;20442;-55
2022/10/12 06:49:01;;;;;;;15.10;6.90;;;;;;;7.32;100.00;102099.94;7391086;19;20411;-61
2022/10/12 06:51:30;;;;;;;15.23;6.93;;;;;;;7.34;100.00;102089.78;7388693;19;20415;-49
2022/10/12 06:54:00;;;;;;;24.53;7.80;;;;;;;7.31;100.00;102085.31;7392668;19;20407;-58
2022/10/12 06:56:30;;;;;;;18.00;7.33;;;;;;;7.32;100.00;102083.66;7389663;19;20954;-60
2022/10/12 06:58:59;;;;;;;17.77;7.00;;;;;;;7.30;100.00;102086.97;7390825;19;20407;-55
2022/10/12 07:01:28;;;;;;;12.83;6.43;;;;;;;7.31;100.00;102080.19;7388727;19;20419;-54
2022/10/12 07:04:01;;;;;;;53.70;24.00;;;;;;;7.36;100.00;102070.25;7392512;19;20391;-54
2022/10/12 07:06:30;;;;;;;17.73;7.10;;;;;;;7.40;100.00;102070.59;7389969;19;20953;-62
2022/10/12 07:09:00;;;;;;;30.83;7.07;;;;;;;7.48;100.00;102066.03;7389956;19;20419;-60
2022/10/12 07:11:29;;;;;;;22.33;7.73;;;;;;;7.55;100.00;102064.84;7388869;19;20422;-58
2022/10/12 07:13:59;;;;;;;14.23;6.43;;;;;;;7.59;100.00;102059.16;7392822;19;20906;-58
2022/10/12 07:16:28;;;;;;;15.13;6.70;;;;;;;7.66;100.00;102060.50;7389168;19;20796;-61
2022/10/12 07:19:00;;;;;;;11.47;5.80;;;;;;;7.70;100.00;102058.28;7394326;19;20447;-56
2022/10/12 07:21:30;;;;;;;14.50;6.73;;;;;;;7.76;100.00;102055.28;7390162;19;20405;-57
2022/10/12 07:23:59;;;;;;;18.57;6.73;;;;;;;7.83;100.00;102054.03;7398190;19;20391;-60
2022/10/12 07:26:28;;;;;;;17.70;6.73;;;;;;;7.89;100.00;102054.50;7396929;19;20776;-58
2022/10/12 07:29:00;;;;;;;18.70;7.70;;;;;;;7.98;100.00;102059.41;7395663;19;20435;-55
2022/10/12 07:31:30;;;;;;;21.97;10.30;;;;;;;8.03;100.00;102062.31;7394629;19;20435;-59
2022/10/12 07:34:02;;;;;;;17.53;6.37;;;;;;;8.09;100.00;102057.63;7397288;19;20403;-62
2022/10/12 07:36:31;;;;;;;25.50;7.30;;;;;;;8.14;100.00;102060.56;7394853;19;20431;-56
2022/10/12 07:39:21;;;;;;;18.20;7.10;;;;;;;8.18;100.00;102063.44;7397392;19;20388;-59
2022/10/12 07:41:51;;;;;;;18.63;6.93;;;;;;;8.28;100.00;102069.25;7394340;19;20503;-61
2022/10/12 07:44:21;;;;;;;16.93;6.33;;;;;;;8.32;100.00;102060.97;7396085;19;20850;-56
2022/10/12 07:46:50;;;;;;;18.27;6.27;;;;;;;8.41;100.00;102066.75;7395318;19;20419;-53
2022/10/12 07:49:22;;;;;;;16.30;6.27;;;;;;;8.48;100.00;102074.16;7396720;19;20388;-61
2022/10/12 07:51:52;;;;;;;15.00;6.80;;;;;;;8.56;100.00;102076.41;7393775;19;20971;-59
2022/10/12 07:54:21;;;;;;;22.60;6.50;;;;;;;8.64;100.00;102070.13;7397264;19;20906;-61
2022/10/12 07:56:57;;;;;;;22.50;6.30;;;;;;;8.73;100.00;102080.19;7394349;19;20434;-55
2022/10/12 07:59:27;;;;;;;16.43;5.10;;;;;;;8.82;100.00;102080.81;7397087;19;20371;-56
2022/10/12 08:01:56;;;;;;;22.10;6.60;;;;;;;8.91;100.00;102090.84;7392847;19;20442;-61
2022/10/12 08:04:28;;;;;;;19.40;5.73;;;;;;;9.00;100.00;102101.81;7395433;19;20384;-56
2022/10/12 08:06:58;;;;;;;78.73;37.23;;;;;;;9.15;100.00;102116.53;7394579;19;20519;-57
2022/10/12 08:09:27;;;;;;;18.93;6.00;;;;;;;9.18;100.00;102111.59;7396347;19;20914;-54
2022/10/12 08:11:57;;;;;;;44.83;17.47;;;;;;;9.38;100.00;102122.38;7394023;19;20411;-56
2022/10/12 08:14:27;;;;;;;16.03;6.27;;;;;;;9.39;100.00;102127.63;7397077;19;20486;-52
2022/10/12 08:16:56;;;;;;;19.67;6.60;;;;;;;9.56;100.00;102136.53;7394648;19;20415;-58
2022/10/12 08:19:28;;;;;;;22.70;7.20;;;;;;;9.94;100.00;102151.88;7396616;19;20509;-55
2022/10/12 08:22:03;;;;;;;19.27;5.90;;;;;;;9.96;100.00;102163.19;7395814;19;21028;-57
2022/10/12 08:24:33;;;;;;;18.60;6.27;;;;;;;9.84;100.00;102174.47;7396424;19;20388;-60
2022/10/12 08:27:02;;;;;;;25.30;5.80;;;;;;;9.88;100.00;102185.00;7394657;19;20407;-58
2022/10/12 08:29:32;;;;;;;16.07;5.07;;;;;;;9.98;100.00;102189.97;7396943;19;20408;-52
2022/10/12 08:32:02;;;;;;;16.20;6.13;;;;;;;10.04;100.00;102198.09;7392744;19;20415;-60
2022/10/12 08:34:34;;;;;;;22.10;6.03;;;;;;;10.16;100.00;102192.88;7396947;19;20930;-51
2022/10/12 08:37:03;;;;;;;22.17;5.20;;;;;;;10.19;100.00;102197.31;7395011;19;20419;-54
2022/10/12 08:39:33;;;;;;;16.63;4.97;;;;;;;10.19;100.00;102203.41;7396312;19;20387;-55
2022/10/12 08:42:13;;;;;;;16.10;4.20;;;;;;;10.23;100.00;102205.41;7393031;19;20438;-58
2022/10/12 08:44:50;;;;;;;19.97;4.70;;;;;;;10.29;100.00;102204.91;7397461;19;20423;-57
2022/10/12 08:47:23;;;;;;;14.27;4.63;;;;;;;10.39;100.00;102215.03;7396015;19;20422;-62
2022/10/12 08:49:55;;;;;;;23.60;4.90;;;;;;;10.51;100.00;102216.69;7394727;19;20407;-59
2022/10/12 08:52:29;;;;;;;16.53;4.37;;;;;;;10.53;100.00;102220.25;7396195;19;20415;-53
2022/10/12 08:55:07;;;;;;;19.93;4.70;;;;;;;10.69;100.00;102221.22;7394518;19;20407;-59
2022/10/12 08:57:36;;;;;;;17.67;4.20;;;;;;;10.77;100.00;102220.06;7400684;19;20439;-60
2022/10/12 09:00:11;;;;;;;10.83;3.40;;;;;;;10.80;100.00;102225.41;7393394;19;20411;-56
2022/10/12 09:02:55;;;;;;;19.47;3.20;;;;;;;10.85;100.00;102229.19;7395712;19;20428;-59
2022/10/12 09:05:32;;;;;;;17.47;3.40;;;;;;;10.96;100.00;102232.44;7393273;19;20428;-56
2022/10/12 09:08:05;;;;;;;14.13;3.80;;;;;;;11.08;100.00;102238.38;7395251;19;20449;-58
2022/10/12 09:10:45;;;;;;;11.47;3.40;;;;;;;11.19;100.00;102233.88;7392929;19;20963;-57
2022/10/12 09:13:24;;;;;;;23.07;4.23;;;;;;;11.29;100.00;102232.75;7396116;19;20384;-60
2022/10/12 09:15:59;;;;;;;13.47;3.97;;;;;;;11.30;100.00;102228.50;7393562;19;20415;-58
2022/10/12 09:18:35;;;;;;;21.10;3.97;;;;;;;11.41;100.00;102227.50;7394661;19;20421;-58
2022/10/12 09:21:15;;;;;;;12.20;3.80;;;;;;;11.43;100.00;102228.47;7392395;19;20421;-58
2022/10/12 09:23:45;;;;;;;15.90;3.27;;;;;;;11.54;100.00;102233.41;7395673;19;20385;-63
2022/10/12 09:26:17;;;;;;;15.40;3.03;;;;;;;11.72;100.00;102233.63;7393871;19;20424;-56
2022/10/12 09:28:49;;;;;;;8.93;2.80;;;;;;;11.68;100.00;102242.91;7394052;19;20765;-54
2022/10/12 09:31:40;;;;;;;8.40;2.53;;;;;;;11.72;100.00;102246.56;7391786;19;20413;-61
2022/10/12 09:34:11;;;;;;;12.03;2.70;;;;;;;11.75;100.00;102246.75;7395292;19;20410;-52
2022/10/12 09:36:49;;;;;;;11.77;2.40;;;;;;;11.94;100.00;102248.75;7392730;19;20498;-60
2022/10/12 09:39:21;;;;;;;13.10;3.27;;;;;;;12.12;100.00;102250.69;7394895;19;20382;-55
2022/10/12 09:41:57;;;;;;;8.63;2.50;;;;;;;12.18;100.00;102251.06;7392143;19;20422;-54
2022/10/12 09:44:34;;;;;;;12.73;2.40;;;;;;;12.15;100.00;102266.38;7393688;19;20416;-58
2022/10/12 09:47:05;;;;;;;11.77;2.40;;;;;;;12.02;100.00;102268.19;7393859;19;20429;-58
2022/10/12 09:49:44;;;;;;;13.10;2.93;;;;;;;12.06;100.00;102271.94;7394673;19;20397;-56
2022/10/12 09:52:16;;;;;;;14.07;2.80;;;;;;;12.14;100.00;102269.78;7393903;19;20958;-57
2022/10/12 09:54:48;;;;;;;12.87;2.73;;;;;;;12.23;100.00;102270.34;7392737;19;20389;-57
2022/10/12 09:57:22;;;;;;;15.73;3.00;;;;;;;12.33;100.00;102268.28;7393645;19;20965;-58
2022/10/12 09:59:52;;;;;;;16.60;3.80;;;;;;;12.50;100.00;102277.00;7392597;19;20414;-59
2022/10/12 10:02:23;;;;;;;19.27;6.07;;;;;;;12.66;100.00;102276.19;7393354;19;20387;-52
2022/10/12 10:04:53;;;;;;;18.77;5.20;;;;;;;12.71;100.00;102299.78;7391840;19;20763;-58
2022/10/12 10:07:29;;;;;;;11.97;3.33;;;;;;;12.56;100.00;102311.94;7393566;19;20391;-58
2022/10/12 10:10:17;;;;;;;10.50;2.27;;;;;;;12.40;100.00;102317.00;7391925;19;20450;-54
2022/10/12 10:12:51;;;;;;;16.53;2.90;;;;;;;12.66;100.00;102318.53;7393644;19;20921;-55
2022/10/12 10:15:24;;;;;;;12.57;2.30;;;;;;;12.79;100.00;102314.97;7391415;19;20404;-61
2022/10/12 10:17:56;;;;;;;13.13;2.77;;;;;;;12.84;100.00;102323.00;7393535;19;20399;-57
2022/10/12 10:20:29;;;;;;;11.40;2.77;;;;;;;13.03;100.00;102319.75;7390955;19;20418;-56
2022/10/12 10:23:01;;;;;;;16.53;3.60;;;;;;;12.97;100.00;102329.75;7393856;19;20407;-53
2022/10/12 10:25:31;;;;;;;5.90;2.03;;;;;;;12.89;100.00;102336.22;7390264;19;20434;-61
2022/10/12 10:28:23;;;;;;;11.13;2.57;;;;;;;13.00;100.00;102344.59;7392540;19;20421;-59
2022/10/12 10:31:01;;;;;;;9.67;2.87;;;;;;;13.03;100.00;102343.06;7390404;19;20422;-60
2022/10/12 10:33:32;;;;;;;12.97;2.60;;;;;;;13.06;100.00;102342.34;7393395;19;20377;-51
2022/10/12 10:36:04;;;;;;;10.67;2.47;;;;;;;13.14;100.00;102348.88;7390716;19;20850;-57
2022/10/12 10:38:53;;;;;;;12.80;2.63;;;;;;;13.21;100.00;102343.22;7392358;19;20408;-59
2022/10/12 10:41:22;;;;;;;12.77;2.87;;;;;;;13.23;100.00;102338.13;7389247;19;20446;-61
2022/10/12 10:43:52;;;;;;;14.60;2.73;;;;;;;13.18;100.00;102344.75;7393457;19;20713;-55
2022/10/12 10:46:25;;;;;;;11.57;2.70;;;;;;;13.31;100.00;102344.63;7389421;19;20431;-57
2022/10/12 10:49:00;;;;;;;9.20;2.13;;;;;;;13.40;100.00;102349.44;7392336;19;20792;-62
2022/10/12 10:51:44;;;;;;;14.77;3.03;;;;;;;13.38;100.00;102364.00;7387501;19;20970;-56
2022/10/12 10:54:28;;;;;;;11.20;2.30;;;;;;;13.23;100.00;102377.00;7390973;19;20422;-51
2022/10/12 10:57:02;;;;;;;11.97;2.17;;;;;;;13.19;100.00;102377.63;7397269;19;20455;-55
2022/10/12 10:59:38;;;;;;;13.10;2.67;;;;;;;13.12;100.00;102370.31;7404067;19;20941;-52
2022/10/12 11:02:16;;;;;;;6.70;1.90;;;;;;;13.34;100.00;102362.94;7399170;19;20413;-54
2022/10/12 11:04:47;;;;;;;48.80;20.87;;;;;;;13.18;100.00;102368.09;7400711;19;20396;-58
2022/10/12 11:07:22;;;;;;;12.97;3.93;;;;;;;13.27;100.00;102360.81;7398837;19;20434;-59
2022/10/12 11:09:57;;;;;;;22.87;8.97;;;;;;;13.23;100.00;102345.91;7399525;19;20395;-57
2022/10/12 11:12:28;;;;;;;43.93;18.17;;;;;;;13.48;100.00;102339.50;7403304;19;20406;-60
2022/10/12 11:15:07;;;;;;;14.37;3.20;;;;;;;13.64;100.00;102336.97;7397007;19;20395;-59
2022/10/12 11:17:39;;;;;;;10.97;2.40;;;;;;;13.67;100.00;102335.31;7398762;19;20431;-54
2022/10/12 11:20:27;;;;;;;11.60;2.87;;;;;;;13.82;100.00;102330.06;7396894;19;20781;-60
2022/10/12 11:23:00;;;;;;;16.40;4.10;;;;;;;13.77;100.00;102345.41;7399024;19;20382;-53
2022/10/12 11:25:37;;;;;;;14.70;3.13;;;;;;;13.74;100.00;102348.72;7396037;19;20421;-56
2022/10/12 11:28:08;;;;;;;9.03;2.83;;;;;;;13.75;100.00;102345.31;7398591;19;20461;-57
2022/10/12 11:30:41;;;;;;;7.70;2.63;;;;;;;13.78;100.00;102339.41;7394494;19;20414;-57
2022/10/12 11:33:15;;;;;;;11.23;4.17;;;;;;;13.81;100.00;102333.47;7399069;19;20407;-59
2022/10/12 11:35:46;;;;;;;14.37;2.87;;;;;;;13.90;100.00;102331.41;7397453;19;20810;-59